createdAt,value
2018-07-05T00:00:25.031Z,16.4
2018-07-05T00:01:14.268Z,16.4
2018-07-05T00:02:05.143Z,16.4
2018-07-05T00:02:54.931Z,16.4
2018-07-05T00:03:44.701Z,16.4
2018-07-05T00:04:34.809Z,16.4
2018-07-05T00:05:24.258Z,16.4
2018-07-05T00:06:15.418Z,16.4
2018-07-05T00:07:05.558Z,16.4
2018-07-05T00:07:55.023Z,16.3
2018-07-05T00:08:44.531Z,16.3
2018-07-05T00:09:34.872Z,16.3
2018-07-05T00:10:25.916Z,16.4
2018-07-05T00:11:15.607Z,16.3
2018-07-05T00:12:05.932Z,16.2
2018-07-05T00:12:55.990Z,16.3
2018-07-05T00:13:45.215Z,16.3
2018-07-05T00:14:35.285Z,16.2
2018-07-05T00:15:25.899Z,16.2
2018-07-05T00:16:16.255Z,16.1
2018-07-05T00:17:05.858Z,16.1
2018-07-05T00:17:56.147Z,16.1
2018-07-05T00:18:46.152Z,16.1
2018-07-05T00:19:36.519Z,16.1
2018-07-05T00:20:26.279Z,16.1
2018-07-05T00:21:16.075Z,16.1
2018-07-05T00:22:06.422Z,16.1
2018-07-05T00:22:56.767Z,16.1
2018-07-05T00:23:45.974Z,16.1
2018-07-05T00:24:36.324Z,16.1
2018-07-05T00:25:26.396Z,16.1
2018-07-05T00:26:17.012Z,16.1
2018-07-05T00:27:06.519Z,16.1
2018-07-05T00:27:57.136Z,16.1
2018-07-05T00:28:47.199Z,16.1
2018-07-05T00:29:37.274Z,16
2018-07-05T00:30:27.083Z,16
2018-07-05T00:31:17.110Z,16
2018-07-05T00:32:06.906Z,16
2018-07-05T00:32:57.231Z,16
2018-07-05T00:33:46.733Z,16
2018-07-05T00:34:37.628Z,16
2018-07-05T00:35:27.703Z,16
2018-07-05T00:36:17.771Z,16
2018-07-05T00:37:07.596Z,16
2018-07-05T00:37:57.887Z,16
2018-07-05T00:38:47.918Z,16
2018-07-05T00:39:37.996Z,16
2018-07-05T00:40:27.547Z,16.1
2018-07-05T00:41:17.559Z,16
2018-07-05T00:42:08.193Z,16
2018-07-05T00:42:58.288Z,16
2018-07-05T00:43:47.765Z,15.9
2018-07-05T00:44:38.133Z,16.1
2018-07-05T00:45:28.225Z,16
2018-07-05T00:46:17.970Z,16.1
2018-07-05T00:47:08.623Z,16.1
2018-07-05T00:47:58.650Z,16.1
2018-07-05T00:48:48.217Z,16.1
2018-07-05T00:49:38.555Z,16.2
2018-07-05T00:50:28.552Z,16.3
2018-07-05T00:51:18.905Z,16.3
2018-07-05T00:52:08.703Z,16.3
2018-07-05T00:52:58.752Z,16.3
2018-07-05T00:53:48.844Z,16.3
2018-07-05T00:54:38.936Z,16.4
2018-07-05T00:55:28.696Z,16.4
2018-07-05T00:56:19.037Z,16.4
2018-07-05T00:57:09.105Z,16.4
2018-07-05T00:57:59.467Z,16.5
2018-07-05T00:58:49.234Z,16.5
2018-07-05T00:59:39.563Z,16.4
2018-07-05T01:00:29.402Z,16.4
2018-07-05T01:01:19.457Z,16.4
2018-07-05T01:02:09.751Z,16.4
2018-07-05T01:02:59.813Z,16.4
2018-07-05T01:03:49.886Z,16.4
2018-07-05T01:04:39.935Z,16.4
2018-07-05T01:05:29.478Z,16.4
2018-07-05T01:06:19.533Z,16.4
2018-07-05T01:07:09.882Z,16.4
2018-07-05T01:08:00.249Z,16.4
2018-07-05T01:08:49.991Z,16.4
2018-07-05T01:09:40.364Z,16.4
2018-07-05T01:10:30.181Z,16.4
2018-07-05T01:11:19.900Z,16.4
2018-07-05T01:12:10.530Z,16.4
2018-07-05T01:13:00.614Z,16.4
2018-07-05T01:13:50.381Z,16.4
2018-07-05T01:14:40.183Z,16.4
2018-07-05T01:15:30.562Z,16.3
2018-07-05T01:16:20.579Z,16.4
2018-07-05T01:17:10.951Z,16.3
2018-07-05T01:18:00.479Z,16.3
2018-07-05T01:18:50.541Z,16.3
2018-07-05T01:19:40.593Z,16.3
2018-07-05T01:20:30.895Z,16.2
2018-07-05T01:21:21.313Z,16.2
2018-07-05T01:22:11.311Z,16.2
2018-07-05T01:23:01.376Z,16.2
2018-07-05T01:23:51.177Z,16.2
2018-07-05T01:24:41.503Z,16.1
2018-07-05T01:25:31.061Z,16.1
2018-07-05T01:26:21.644Z,16.1
2018-07-05T01:27:11.416Z,16.2
2018-07-05T01:28:01.522Z,16.2
2018-07-05T01:28:51.841Z,16.2
2018-07-05T01:29:41.908Z,16.1
2018-07-05T01:30:31.423Z,16.1
2018-07-05T01:31:21.752Z,16.2
2018-07-05T01:32:12.094Z,16.2
2018-07-05T01:33:01.897Z,16.3
2018-07-05T01:33:51.939Z,16.2
2018-07-05T01:34:42.026Z,16.3
2018-07-05T01:35:32.066Z,16.4
2018-07-05T01:36:22.223Z,16.4
2018-07-05T01:37:11.932Z,16.4
2018-07-05T01:38:02.574Z,16.3
2018-07-05T01:38:52.349Z,16.3
2018-07-05T01:39:42.406Z,16.3
2018-07-05T01:40:32.753Z,16.3
2018-07-05T01:41:22.924Z,16.2
2018-07-05T01:42:12.877Z,16.2
2018-07-05T01:43:02.964Z,16.3
2018-07-05T01:43:53.050Z,16.3
2018-07-05T01:44:42.537Z,16.3
2018-07-05T01:45:33.165Z,16.2
2018-07-05T01:46:23.250Z,16.3
2018-07-05T01:47:13.248Z,16.3
2018-07-05T01:48:03.376Z,16.3
2018-07-05T01:48:53.380Z,16.3
2018-07-05T01:49:43.452Z,16.2
2018-07-05T01:50:33.541Z,16.2
2018-07-05T01:51:23.045Z,16.2
2018-07-05T01:52:13.656Z,16.2
2018-07-05T01:53:03.438Z,16.3
2018-07-05T01:53:53.784Z,16.3
2018-07-05T01:54:43.859Z,16.3
2018-07-05T01:55:33.933Z,16.3
2018-07-05T01:56:23.985Z,16.3
2018-07-05T01:57:14.169Z,16.3
2018-07-05T01:58:04.156Z,16.3
2018-07-05T01:58:54.188Z,16.3
2018-07-05T01:59:43.968Z,16.3
2018-07-05T02:00:34.074Z,16.3
2018-07-05T02:01:24.413Z,16.3
2018-07-05T02:02:14.181Z,16.3
2018-07-05T02:03:03.962Z,16.3
2018-07-05T02:03:54.293Z,16.3
2018-07-05T02:04:44.623Z,16.3
2018-07-05T02:05:34.408Z,16.2
2018-07-05T02:06:24.773Z,16.2
2018-07-05T02:07:14.832Z,16.2
2018-07-05T02:08:04.661Z,16.1
2018-07-05T02:08:54.974Z,16.2
2018-07-05T02:09:45.103Z,16.1
2018-07-05T02:10:35.185Z,16.1
2018-07-05T02:11:25.276Z,16.2
2018-07-05T02:12:15.285Z,16.3
2018-07-05T02:13:05.066Z,16.3
2018-07-05T02:13:55.424Z,16.4
2018-07-05T02:14:44.920Z,16.4
2018-07-05T02:15:35.564Z,16.4
2018-07-05T02:16:25.581Z,16.4
2018-07-05T02:17:15.097Z,16.5
2018-07-05T02:18:05.701Z,16.6
2018-07-05T02:18:55.759Z,16.5
2018-07-05T02:19:45.854Z,16.6
2018-07-05T02:20:35.881Z,16.7
2018-07-05T02:21:25.950Z,16.7
2018-07-05T02:22:15.739Z,16.7
2018-07-05T02:23:06.061Z,16.8
2018-07-05T02:23:55.864Z,16.7
2018-07-05T02:24:46.177Z,16.7
2018-07-05T02:25:36.264Z,16.6
2018-07-05T02:26:26.022Z,16.6
2018-07-05T02:27:16.466Z,16.6
2018-07-05T02:28:06.145Z,16.6
2018-07-05T02:28:56.514Z,16.5
2018-07-05T02:29:46.294Z,16.4
2018-07-05T02:30:36.644Z,16.4
2018-07-05T02:31:26.476Z,16.4
2018-07-05T02:32:16.768Z,16.3
2018-07-05T02:33:06.559Z,16.1
2018-07-05T02:33:56.628Z,16.1
2018-07-05T02:34:47.018Z,16
2018-07-05T02:35:36.786Z,15.9
2018-07-05T02:36:27.144Z,15.8
2018-07-05T02:37:17.185Z,15.8
2018-07-05T02:38:07.199Z,15.7
2018-07-05T02:38:57.008Z,15.7
2018-07-05T02:39:47.374Z,15.6
2018-07-05T02:40:37.171Z,15.6
2018-07-05T02:41:27.503Z,15.5
2018-07-05T02:42:17.601Z,15.5
2018-07-05T02:43:07.136Z,15.5
2018-07-05T02:43:57.140Z,15.4
2018-07-05T02:44:47.488Z,15.4
2018-07-05T02:45:37.260Z,15.3
2018-07-05T02:46:27.918Z,15.3
2018-07-05T02:47:18.022Z,15.3
2018-07-05T02:48:07.763Z,15.3
2018-07-05T02:48:57.538Z,15.3
2018-07-05T02:49:48.133Z,15.3
2018-07-05T02:50:37.905Z,15.3
2018-07-05T02:51:28.294Z,15.3
2018-07-05T02:52:18.357Z,15.3
2018-07-05T02:53:08.407Z,15.4
2018-07-05T02:53:58.530Z,15.4
2018-07-05T02:54:48.544Z,15.4
2018-07-05T02:55:38.606Z,15.3
2018-07-05T02:56:28.392Z,15.3
2018-07-05T02:57:18.447Z,15.3
2018-07-05T02:58:08.765Z,15.3
2018-07-05T02:58:58.856Z,15.3
2018-07-05T02:59:48.362Z,15.3
2018-07-05T03:00:39.015Z,15.3
2018-07-05T03:01:28.800Z,15.2
2018-07-05T03:02:18.911Z,15.2
2018-07-05T03:03:08.912Z,15.3
2018-07-05T03:03:59.008Z,15.3
2018-07-05T03:04:49.079Z,15.3
2018-07-05T03:05:39.392Z,15.3
2018-07-05T03:06:29.187Z,15.3
2018-07-05T03:07:18.950Z,15.2
2018-07-05T03:08:09.306Z,15.1
2018-07-05T03:08:59.361Z,15.1
2018-07-05T03:09:49.472Z,15.1
2018-07-05T03:10:39.526Z,15.2
2018-07-05T03:11:29.859Z,15.1
2018-07-05T03:12:19.894Z,15.2
2018-07-05T03:13:09.980Z,15.3
2018-07-05T03:14:00.030Z,15.3
2018-07-05T03:14:49.818Z,15.3
2018-07-05T03:15:40.169Z,15.3
2018-07-05T03:16:30.229Z,15.3
2018-07-05T03:17:20.279Z,15.3
2018-07-05T03:18:10.186Z,15.3
2018-07-05T03:19:00.516Z,15.3
2018-07-05T03:19:50.503Z,15.3
2018-07-05T03:20:40.276Z,15.3
2018-07-05T03:21:30.329Z,15.3
2018-07-05T03:22:20.696Z,15.3
2018-07-05T03:23:10.493Z,15.3
2018-07-05T03:24:00.265Z,15.3
2018-07-05T03:24:50.951Z,15.3
2018-07-05T03:25:41.061Z,15.3
2018-07-05T03:26:30.422Z,15.4
2018-07-05T03:27:20.814Z,15.4
2018-07-05T03:28:11.136Z,15.4
2018-07-05T03:29:01.201Z,15.4
2018-07-05T03:29:51.255Z,15.4
2018-07-05T03:30:41.349Z,15.4
2018-07-05T03:31:31.383Z,15.4
2018-07-05T03:32:21.445Z,15.4
2018-07-05T03:33:11.523Z,15.4
2018-07-05T03:34:01.583Z,15.4
2018-07-05T03:34:51.406Z,15.4
2018-07-05T03:35:41.470Z,15.5
2018-07-05T03:36:31.770Z,15.5
2018-07-05T03:37:21.259Z,15.5
2018-07-05T03:38:11.893Z,15.5
2018-07-05T03:39:01.972Z,15.6
2018-07-05T03:39:51.760Z,15.6
2018-07-05T03:40:42.095Z,15.5
2018-07-05T03:41:31.608Z,15.6
2018-07-05T03:42:22.215Z,15.6
2018-07-05T03:43:12.001Z,15.6
2018-07-05T03:44:02.370Z,15.6
2018-07-05T03:44:52.445Z,15.6
2018-07-05T03:45:42.226Z,15.7
2018-07-05T03:46:32.273Z,15.6
2018-07-05T03:47:22.052Z,15.7
2018-07-05T03:48:12.110Z,15.7
2018-07-05T03:49:02.748Z,15.8
2018-07-05T03:49:52.800Z,15.8
2018-07-05T03:50:42.902Z,15.8
2018-07-05T03:51:32.545Z,15.8
2018-07-05T03:52:22.997Z,15.8
2018-07-05T03:53:13.046Z,15.8
2018-07-05T03:54:03.144Z,15.8
2018-07-05T03:54:52.893Z,15.8
2018-07-05T03:55:42.956Z,15.8
2018-07-05T03:56:33.040Z,15.8
2018-07-05T03:57:23.367Z,15.8
2018-07-05T03:58:13.428Z,15.9
2018-07-05T03:59:03.545Z,15.8
2018-07-05T03:59:53.568Z,15.8
2018-07-05T04:00:43.621Z,15.9
2018-07-05T04:01:33.419Z,15.9
2018-07-05T04:02:23.818Z,15.9
2018-07-05T04:03:13.816Z,15.9
2018-07-05T04:04:03.885Z,15.9
2018-07-05T04:04:53.694Z,15.9
2018-07-05T04:05:44.081Z,16.1
2018-07-05T04:06:34.102Z,16.1
2018-07-05T04:07:24.221Z,16.2
2018-07-05T04:08:14.084Z,16.2
2018-07-05T04:09:04.278Z,16.2
2018-07-05T04:09:54.351Z,16.3
2018-07-05T04:10:44.442Z,16.3
2018-07-05T04:11:33.647Z,16.3
2018-07-05T04:12:24.334Z,16.4
2018-07-05T04:13:14.348Z,16.4
2018-07-05T04:14:03.875Z,16.4
2018-07-05T04:14:53.999Z,16.6
2018-07-05T04:15:44.143Z,16.6
2018-07-05T04:16:34.621Z,16.6
2018-07-05T04:17:24.127Z,16.5
2018-07-05T04:18:13.993Z,16.6
2018-07-05T04:19:04.236Z,16.6
2018-07-05T04:19:54.029Z,16.6
2018-07-05T04:20:44.535Z,16.8
2018-07-05T04:21:34.234Z,16.8
2018-07-05T04:22:24.133Z,16.8
2018-07-05T04:23:14.575Z,16.9
2018-07-05T04:24:05.356Z,16.9
2018-07-05T04:24:54.784Z,16.9
2018-07-05T04:25:44.781Z,16.9
2018-07-05T04:26:34.843Z,16.9
2018-07-05T04:29:54.793Z,17.1
2018-07-05T04:30:45.144Z,17.1
2018-07-05T04:31:35.086Z,17.1
2018-07-05T04:32:25.560Z,17.2
2018-07-05T04:33:15.955Z,17.3
2018-07-05T04:34:05.533Z,17.2
2018-07-05T04:34:55.768Z,17.3
2018-07-05T04:35:45.906Z,17.3
2018-07-05T04:36:35.682Z,17.3
2018-07-05T04:37:25.664Z,17.3
2018-07-05T04:38:15.527Z,17.4
2018-07-05T04:39:06.107Z,17.3
2018-07-05T04:39:55.384Z,17.4
2018-07-05T04:40:45.927Z,17.4
2018-07-05T04:41:35.577Z,17.5
2018-07-05T04:42:26.356Z,17.5
2018-07-05T04:43:15.941Z,17.6
2018-07-05T04:44:05.956Z,17.6
2018-07-05T04:44:56.330Z,17.6
2018-07-05T04:45:46.670Z,17.6
2018-07-05T04:46:36.935Z,17.6
2018-07-05T04:47:26.505Z,17.7
2018-07-05T04:48:16.645Z,17.7
2018-07-05T04:49:06.300Z,17.8
2018-07-05T04:49:56.924Z,17.8
2018-07-05T04:50:47.284Z,17.9
2018-07-05T04:51:36.829Z,17.9
2018-07-05T04:52:26.829Z,17.9
2018-07-05T04:53:17.506Z,18
2018-07-05T04:54:07.043Z,18.1
2018-07-05T04:54:57.121Z,18.1
2018-07-05T04:55:47.068Z,18.1
2018-07-05T04:56:37.522Z,18.1
2018-07-05T04:57:27.213Z,18.1
2018-07-05T04:58:17.426Z,18.2
2018-07-05T04:59:07.444Z,18.1
2018-07-05T04:59:58.001Z,18.1
2018-07-05T05:00:47.686Z,18.1
2018-07-05T05:01:37.629Z,18.1
2018-07-05T05:02:28.931Z,18.1
2018-07-05T05:03:18.507Z,18.1
2018-07-05T05:04:08.565Z,18.1
2018-07-05T05:04:57.873Z,18.1
2018-07-05T05:05:48.678Z,18.1
2018-07-05T05:06:38.176Z,18.2
2018-07-05T05:07:28.824Z,18.3
2018-07-05T05:08:18.880Z,18.3
2018-07-05T05:09:08.682Z,18.5
2018-07-05T05:09:58.721Z,18.6
2018-07-05T05:10:49.064Z,18.6
2018-07-05T05:13:19.010Z,18.8
2018-07-05T05:14:09.060Z,18.8
2018-07-05T05:14:59.716Z,18.8
2018-07-05T05:15:48.700Z,18.8
2018-07-05T05:16:39.540Z,18.8
2018-07-05T05:17:29.593Z,18.9
2018-07-05T05:18:19.641Z,18.8
2018-07-05T05:19:09.734Z,18.9
2018-07-05T05:19:59.235Z,18.8
2018-07-05T05:20:49.559Z,18.8
2018-07-05T05:25:50.002Z,18.8
2018-07-05T05:26:40.036Z,18.8
2018-07-05T05:27:30.103Z,18.8
2018-07-05T05:28:20.160Z,18.9
2018-07-05T05:29:10.529Z,18.9
2018-07-05T05:30:00.614Z,18.9
2018-07-05T05:30:50.114Z,18.9
2018-07-05T05:31:40.685Z,18.9
2018-07-05T05:32:30.749Z,18.9
2018-07-05T05:33:20.252Z,19
2018-07-05T05:34:10.886Z,18.9
2018-07-05T05:35:00.394Z,18.9
2018-07-05T05:35:50.743Z,18.8
2018-07-05T05:36:41.090Z,18.8
2018-07-05T05:37:30.863Z,18.8
2018-07-05T05:40:01.074Z,18.6
2018-07-05T05:42:31.270Z,18.6
2018-07-05T05:43:21.663Z,18.6
2018-07-05T05:45:51.519Z,18.8
2018-07-05T05:46:41.585Z,18.8
2018-07-05T05:47:31.908Z,18.9
2018-07-05T05:48:22.022Z,19
2018-07-05T05:49:12.022Z,19
2018-07-05T05:50:01.821Z,18.9
2018-07-05T05:50:52.179Z,18.9
2018-07-05T05:51:41.976Z,18.9
2018-07-05T05:52:32.298Z,19.1
2018-07-05T05:53:22.366Z,19.1
2018-07-05T05:54:12.153Z,19.3
2018-07-05T05:55:02.312Z,19.2
2018-07-05T05:55:52.569Z,19.3
2018-07-05T05:56:42.619Z,19.2
2018-07-05T05:57:32.145Z,19.1
2018-07-05T05:58:22.747Z,19.1
2018-07-05T05:59:12.518Z,19.1
2018-07-05T06:00:02.587Z,19
2018-07-05T06:00:52.660Z,18.9
2018-07-05T06:01:43.076Z,18.9
2018-07-05T06:02:33.060Z,19
2018-07-05T06:03:22.318Z,19
2018-07-05T06:04:12.948Z,19.1
2018-07-05T06:05:03.270Z,19.1
2018-07-05T06:05:52.765Z,19.2
2018-07-05T06:06:43.410Z,19.3
2018-07-05T06:07:33.183Z,19.3
2018-07-05T06:08:23.256Z,19.4
2018-07-05T06:09:13.025Z,19.6
2018-07-05T06:10:03.880Z,19.6
2018-07-05T06:10:53.445Z,19.8
2018-07-05T06:11:43.512Z,19.8
2018-07-05T06:12:33.844Z,19.8
2018-07-05T06:13:23.623Z,19.9
2018-07-05T06:14:13.416Z,19.9
2018-07-05T06:15:04.052Z,19.9
2018-07-05T06:15:53.842Z,19.9
2018-07-05T06:16:43.910Z,19.9
2018-07-05T06:17:33.972Z,19.9
2018-07-05T06:18:23.460Z,19.7
2018-07-05T06:19:14.476Z,19.8
2018-07-05T06:20:04.420Z,19.8
2018-07-05T06:20:54.185Z,19.7
2018-07-05T06:21:44.555Z,19.8
2018-07-05T06:22:34.605Z,19.8
2018-07-05T06:23:24.394Z,19.7
2018-07-05T06:24:14.780Z,19.7
2018-07-05T06:25:04.819Z,19.9
2018-07-05T06:25:54.856Z,20.1
2018-07-05T06:26:44.919Z,20.2
2018-07-05T06:27:34.982Z,20.2
2018-07-05T06:28:25.067Z,20.4
2018-07-05T06:29:15.135Z,20.5
2018-07-05T06:30:04.929Z,20.5
2018-07-05T06:30:54.711Z,20.5
2018-07-05T06:31:45.355Z,20.4
2018-07-05T06:32:35.413Z,20.4
2018-07-05T06:33:25.469Z,20.4
2018-07-05T06:34:15.621Z,20.6
2018-07-05T06:35:05.663Z,20.6
2018-07-05T06:35:55.676Z,20.6
2018-07-05T06:36:45.476Z,20.8
2018-07-05T06:37:35.547Z,20.9
2018-07-05T06:38:25.591Z,21.2
2018-07-05T06:39:15.472Z,21.3
2018-07-05T06:40:05.741Z,21.5
2018-07-05T06:40:55.523Z,21.6
2018-07-05T06:41:46.099Z,21.6
2018-07-05T06:42:36.186Z,21.4
2018-07-05T06:43:26.004Z,21.6
2018-07-05T06:44:16.084Z,21.8
2018-07-05T06:45:06.128Z,21.9
2018-07-05T06:45:56.182Z,22.3
2018-07-05T06:46:46.041Z,22.4
2018-07-05T06:47:36.820Z,22.6
2018-07-05T06:48:26.667Z,22.8
2018-07-05T06:49:16.514Z,22.7
2018-07-05T06:50:06.504Z,22.8
2018-07-05T06:50:56.279Z,22.6
2018-07-05T06:51:46.619Z,22.5
2018-07-05T06:52:36.412Z,22.7
2018-07-05T06:53:26.586Z,23
2018-07-05T06:54:16.066Z,23
2018-07-05T06:55:07.150Z,22.9
2018-07-05T06:55:56.924Z,23.1
2018-07-05T06:56:47.300Z,23
2018-07-05T06:57:37.386Z,23.3
2018-07-05T06:58:27.407Z,23.4
2018-07-05T06:59:17.938Z,23.4
2018-07-05T07:00:07.275Z,22.9
2018-07-05T07:00:57.406Z,22.9
2018-07-05T07:01:47.668Z,22.9
2018-07-05T07:02:37.481Z,22.9
2018-07-05T07:03:27.213Z,22.9
2018-07-05T07:04:17.846Z,22.9
2018-07-05T07:05:07.356Z,23.1
2018-07-05T07:05:57.713Z,23.6
2018-07-05T07:06:48.053Z,23.9
2018-07-05T07:07:38.099Z,23.9
2018-07-05T07:08:28.163Z,23.6
2018-07-05T07:09:18.243Z,23.6
2018-07-05T07:10:08.083Z,23.5
2018-07-05T07:10:58.108Z,23.2
2018-07-05T07:11:48.419Z,23.3
2018-07-05T07:12:38.245Z,23.4
2018-07-05T07:13:28.281Z,23.6
2018-07-05T07:14:18.135Z,23.6
2018-07-05T07:15:08.691Z,23.3
2018-07-05T07:15:58.709Z,23.4
2018-07-05T07:16:48.846Z,23.4
2018-07-05T07:17:38.613Z,23.4
2018-07-05T07:18:28.395Z,23.4
2018-07-05T07:19:19.024Z,23.6
2018-07-05T07:20:08.883Z,23.6
2018-07-05T07:20:59.167Z,23.6
2018-07-05T07:21:49.233Z,23.8
2018-07-05T07:22:39.013Z,24.1
2018-07-05T07:23:29.349Z,24.3
2018-07-05T07:24:19.465Z,24.5
2018-07-05T07:25:09.480Z,24.4
2018-07-05T07:25:59.284Z,24.4
2018-07-05T07:26:49.638Z,24.1
2018-07-05T07:27:38.887Z,24.1
2018-07-05T07:28:29.473Z,23.9
2018-07-05T07:29:19.816Z,23.8
2018-07-05T07:30:09.611Z,23.8
2018-07-05T07:30:59.672Z,23.9
2018-07-05T07:31:51.258Z,24.2
2018-07-05T07:32:40.131Z,24.2
2018-07-05T07:33:30.139Z,24.1
2018-07-05T07:34:19.924Z,24.3
2018-07-05T07:35:10.094Z,24.5
2018-07-05T07:35:59.782Z,24.3
2018-07-05T07:36:50.429Z,24.6
2018-07-05T07:37:41.152Z,24.1
2018-07-05T07:38:30.562Z,24.2
2018-07-05T07:39:20.028Z,24.9
2018-07-05T07:40:10.177Z,25
2018-07-05T07:41:00.456Z,25.2
2018-07-05T07:41:50.780Z,25.2
2018-07-05T07:42:40.881Z,25.1
2018-07-05T07:43:30.421Z,24.8
2018-07-05T07:44:20.730Z,24.4
2018-07-05T07:45:10.520Z,24.4
2018-07-05T07:46:01.151Z,24.7
2018-07-05T07:46:50.506Z,24.4
2018-07-05T07:47:40.981Z,24.5
2018-07-05T07:48:31.333Z,24.4
2018-07-05T07:49:20.828Z,24.5
2018-07-05T07:50:11.454Z,24.2
2018-07-05T07:51:01.538Z,24.4
2018-07-05T07:51:51.598Z,24.6
2018-07-05T07:52:41.390Z,24.5
2018-07-05T07:53:31.727Z,24.7
2018-07-05T07:54:21.770Z,24.6
2018-07-05T07:55:11.305Z,24.6
2018-07-05T07:56:01.920Z,24.3
2018-07-05T07:56:51.987Z,24.6
2018-07-05T07:57:42.035Z,24.4
2018-07-05T07:58:31.826Z,24.5
2018-07-05T07:59:21.986Z,24.4
2018-07-05T08:00:11.137Z,24.7
2018-07-05T08:01:01.741Z,24.9
2018-07-05T08:01:52.098Z,25.1
2018-07-05T08:02:42.499Z,25.1
2018-07-05T08:03:32.500Z,25.2
2018-07-05T08:04:22.544Z,25.4
2018-07-05T08:05:12.639Z,25.9
2018-07-05T08:06:02.143Z,25.9
2018-07-05T08:06:52.496Z,25.8
2018-07-05T08:07:42.829Z,25.5
2018-07-05T08:08:32.907Z,25.3
2018-07-05T08:09:22.972Z,25.1
2018-07-05T08:10:12.778Z,25.4
2018-07-05T08:11:03.109Z,25.2
2018-07-05T08:11:52.900Z,24.9
2018-07-05T08:12:43.256Z,24.6
2018-07-05T08:13:33.306Z,24.7
2018-07-05T08:14:23.094Z,25
2018-07-05T08:15:13.521Z,25
2018-07-05T08:16:03.279Z,25.2
2018-07-05T08:16:53.303Z,25
2018-07-05T08:17:43.615Z,25.1
2018-07-05T08:18:33.692Z,25.4
2018-07-05T08:19:23.759Z,25.5
2018-07-05T08:20:13.813Z,25.5
2018-07-05T08:21:03.898Z,25.3
2018-07-05T08:21:53.683Z,25.2
2018-07-05T08:22:43.736Z,25.4
2018-07-05T08:23:33.792Z,25.7
2018-07-05T08:24:24.169Z,25.8
2018-07-05T08:25:13.932Z,25.8
2018-07-05T08:26:04.295Z,25.8
2018-07-05T08:26:54.085Z,25.4
2018-07-05T08:27:44.149Z,25.4
2018-07-05T08:28:33.633Z,25.3
2018-07-05T08:29:24.330Z,25.2
2018-07-05T08:30:14.365Z,25.4
2018-07-05T08:31:04.683Z,25.7
2018-07-05T08:31:54.449Z,25.9
2018-07-05T08:32:44.331Z,25.8
2018-07-05T08:33:34.884Z,25.5
2018-07-05T08:34:24.931Z,25.6
2018-07-05T08:35:14.775Z,25.5
2018-07-05T08:36:04.588Z,25.5
2018-07-05T08:36:54.857Z,25.4
2018-07-05T08:37:45.408Z,25.4
2018-07-05T08:38:34.975Z,25.6
2018-07-05T08:39:25.342Z,25.8
2018-07-05T08:40:14.852Z,25.9
2018-07-05T08:41:05.467Z,25.8
2018-07-05T08:41:55.264Z,26
2018-07-05T08:42:45.352Z,25.9
2018-07-05T08:43:35.646Z,26.4
2018-07-05T08:44:25.170Z,26.6
2018-07-05T08:45:15.227Z,26.6
2018-07-05T08:46:05.367Z,26.8
2018-07-05T08:46:55.665Z,26.7
2018-07-05T08:47:45.989Z,26.7
2018-07-05T08:48:35.508Z,26.4
2018-07-05T08:49:26.116Z,26.5
2018-07-05T08:50:15.897Z,26.3
2018-07-05T08:51:05.842Z,26.6
2018-07-05T08:51:55.765Z,26.6
2018-07-05T08:52:46.111Z,26.9
2018-07-05T08:53:36.183Z,26.6
2018-07-05T08:54:26.239Z,26.6
2018-07-05T08:55:16.097Z,26.8
2018-07-05T08:56:06.369Z,26.4
2018-07-05T08:56:56.708Z,26.8
2018-07-05T08:57:46.519Z,26.5
2018-07-05T08:58:36.609Z,26.3
2018-07-05T08:59:26.929Z,26.6
2018-07-05T09:00:16.981Z,26.6
2018-07-05T09:01:06.489Z,26.8
2018-07-05T09:01:57.125Z,26.9
2018-07-05T09:02:47.176Z,26.4
2018-07-05T09:03:37.025Z,26.3
2018-07-05T09:04:27.048Z,26.5
2018-07-05T09:05:17.736Z,26.6
2018-07-05T09:06:06.879Z,26.4
2018-07-05T09:06:56.942Z,26.5
2018-07-05T09:07:47.277Z,27
2018-07-05T09:08:37.382Z,27
2018-07-05T09:09:27.497Z,26.9
2018-07-05T09:10:17.646Z,26.6
2018-07-05T09:11:07.569Z,26.9
2018-07-05T09:11:58.334Z,26.7
2018-07-05T09:12:47.950Z,26.3
2018-07-05T09:13:37.770Z,26.3
2018-07-05T09:14:28.087Z,26.6
2018-07-05T09:15:18.210Z,26.7
2018-07-05T09:16:08.234Z,26.8
2018-07-05T09:16:58.103Z,26.3
2018-07-05T09:17:50.647Z,26.4
2018-07-05T09:18:38.428Z,26.9
2018-07-05T09:19:27.948Z,26.8
2018-07-05T09:20:18.022Z,26.6
2018-07-05T09:21:08.350Z,26.8
2018-07-05T09:21:58.668Z,27.1
2018-07-05T09:22:48.828Z,27.4
2018-07-05T09:23:39.126Z,27.6
2018-07-05T09:24:28.608Z,27.2
2018-07-05T09:25:19.002Z,27.4
2018-07-05T09:26:08.731Z,27.3
2018-07-05T09:26:59.082Z,27.6
2018-07-05T09:27:48.901Z,27.4
2018-07-05T09:28:39.023Z,27.6
2018-07-05T09:29:28.994Z,27.2
2018-07-05T09:30:19.356Z,27.3
2018-07-05T09:31:09.775Z,26.9
2018-07-05T09:31:59.216Z,26.6
2018-07-05T09:32:49.544Z,26.6
2018-07-05T09:33:38.913Z,26.9
2018-07-05T09:34:28.920Z,27.3
2018-07-05T09:35:19.544Z,27.5
2018-07-05T09:36:09.523Z,27.3
2018-07-05T09:36:59.880Z,27.2
2018-07-05T09:37:49.108Z,27.1
2018-07-05T09:38:39.750Z,27.1
2018-07-05T09:39:29.792Z,27.2
2018-07-05T09:40:19.873Z,27.3
2018-07-05T09:41:10.213Z,27.8
2018-07-05T09:42:00.272Z,27.8
2018-07-05T09:42:50.064Z,27.9
2018-07-05T09:43:40.382Z,27.6
2018-07-05T09:44:30.161Z,27.5
2018-07-05T09:45:20.252Z,27.2
2018-07-05T09:46:10.063Z,27
2018-07-05T09:47:01.136Z,27.1
2018-07-05T09:47:50.735Z,27.1
2018-07-05T09:48:40.251Z,27.1
2018-07-05T09:49:30.870Z,27.6
2018-07-05T09:51:10.981Z,27.5
2018-07-05T09:52:01.040Z,27.6
2018-07-05T09:52:51.785Z,27.4
2018-07-05T09:53:40.635Z,27.5
2018-07-05T09:54:31.237Z,27.6
2018-07-05T09:55:20.745Z,27.4
2018-07-05T09:56:11.362Z,27.5
2018-07-05T09:57:01.463Z,27.3
2018-07-05T09:57:51.560Z,27.6
2018-07-05T09:58:41.293Z,27.8
2018-07-05T09:59:31.368Z,28.1
2018-07-05T10:00:21.709Z,28
2018-07-05T10:01:11.786Z,28.3
2018-07-05T10:02:01.279Z,28.6
2018-07-05T10:02:51.666Z,28.3
2018-07-05T10:03:43.048Z,27.9
2018-07-05T10:04:32.057Z,27.6
2018-07-05T10:05:21.846Z,27.6
2018-07-05T10:06:11.650Z,27.6
2018-07-05T10:07:02.245Z,27.7
2018-07-05T10:07:52.066Z,27.7
2018-07-05T10:08:42.426Z,27.5
2018-07-05T10:09:32.451Z,27.8
2018-07-05T10:10:21.932Z,27.9
2018-07-05T10:11:12.301Z,28.3
2018-07-05T10:12:02.657Z,27.9
2018-07-05T10:12:52.423Z,27.6
2018-07-05T10:13:44.547Z,27.4
2018-07-05T10:14:32.864Z,27.3
2018-07-05T10:15:22.643Z,27.5
2018-07-05T10:16:12.976Z,28
2018-07-05T10:17:03.098Z,28.3
2018-07-05T10:17:53.132Z,28.1
2018-07-05T10:18:43.165Z,28.6
2018-07-05T10:19:33.488Z,28.4
2018-07-05T10:20:23.284Z,28.4
2018-07-05T10:21:13.373Z,28.6
2018-07-05T10:22:03.160Z,28.2
2018-07-05T10:22:53.557Z,28.3
2018-07-05T10:23:43.310Z,28.3
2018-07-05T10:24:33.067Z,28.1
2018-07-05T10:25:23.709Z,28.2
2018-07-05T10:26:13.191Z,28.1
2018-07-05T10:27:04.098Z,28.1
2018-07-05T10:27:53.882Z,28.6
2018-07-05T10:28:43.675Z,28.4
2018-07-05T10:29:34.052Z,28.7
2018-07-05T10:30:23.834Z,28.8
2018-07-05T10:31:13.860Z,28.4
2018-07-05T10:32:03.984Z,28.3
2018-07-05T10:32:54.354Z,28.3
2018-07-05T10:33:44.335Z,28.4
2018-07-05T10:34:34.213Z,28.4
2018-07-05T10:35:24.467Z,28.3
2018-07-05T10:36:14.312Z,28.4
2018-07-05T10:37:04.636Z,28.3
2018-07-05T10:37:54.687Z,28.5
2018-07-05T10:38:44.802Z,29.1
2018-07-05T10:39:35.168Z,28.9
2018-07-05T10:40:24.889Z,28.7
2018-07-05T10:41:14.755Z,28.9
2018-07-05T10:42:04.747Z,29.1
2018-07-05T10:42:54.813Z,28.9
2018-07-05T10:43:44.855Z,28.6
2018-07-05T10:44:35.211Z,28.9
2018-07-05T10:45:25.022Z,29.1
2018-07-05T10:46:15.379Z,29.3
2018-07-05T10:47:05.135Z,29.1
2018-07-05T10:47:55.501Z,28.7
2018-07-05T10:48:45.546Z,28.6
2018-07-05T10:49:35.116Z,29.1
2018-07-05T10:50:25.414Z,28.7
2018-07-05T10:51:15.759Z,28.9
2018-07-05T10:52:05.271Z,28.8
2018-07-05T10:52:55.308Z,28.8
2018-07-05T10:53:45.669Z,29.3
2018-07-05T10:54:36.029Z,29.2
2018-07-05T10:55:25.685Z,29
2018-07-05T10:56:15.851Z,29.1
2018-07-05T10:57:06.211Z,29.3
2018-07-05T10:57:55.991Z,29.6
2018-07-05T10:58:46.332Z,29.8
2018-07-05T10:59:36.391Z,29.9
2018-07-05T11:00:25.911Z,29.6
2018-07-05T11:01:16.517Z,29.6
2018-07-05T11:02:06.013Z,29.2
2018-07-05T11:02:56.697Z,28.6
2018-07-05T11:03:46.733Z,28.8
2018-07-05T11:04:36.248Z,29.4
2018-07-05T11:05:26.313Z,29.7
2018-07-05T11:06:16.921Z,29
2018-07-05T11:07:06.805Z,28.9
2018-07-05T11:07:56.818Z,28.9
2018-07-05T11:08:46.848Z,29.1
2018-07-05T11:09:36.628Z,29.2
2018-07-05T11:10:27.300Z,28.8
2018-07-05T11:11:16.470Z,28.8
2018-07-05T11:12:07.122Z,28.8
2018-07-05T11:12:56.910Z,28.9
2018-07-05T11:13:47.541Z,29.2
2018-07-05T11:14:38.591Z,29.6
2018-07-05T11:15:27.098Z,30
2018-07-05T11:16:17.476Z,29.8
2018-07-05T11:17:07.797Z,29.8
2018-07-05T11:17:57.852Z,29.8
2018-07-05T11:18:47.637Z,29.9
2018-07-05T11:19:37.437Z,29.8
2018-07-05T11:20:28.120Z,29.9
2018-07-05T11:21:17.582Z,29.9
2018-07-05T11:22:08.195Z,30.3
2018-07-05T11:22:57.702Z,29.7